Flight Track Log - Related Links

Times and Time Zones

All times are in EDT time to prevent confusion due to time zone crossing. See the FFT241 flight status page for this flight to view local times or setup timezone preferences in your user account.

Time Position Orientation Groundspeed Altitude Reporting Facility
EDT Latitude Longitude Course Direction KTS MPH feet Rate Location/Type
Wed 03:01:32 PM 39.8167 -104.8667 241° Southwest 284 327 8,800  Level Denver TRACON
Wed 03:02:05 PM 39.8125 -104.9308 265° West 288 331 10,500 2,745 Climbing Denver Center
Wed 03:03:06 PM 39.7969 -105.0494 260° West 327 376 13,100 2,683 Climbing Denver Center
Wed 03:04:08 PM 39.7808 -105.1814 261° West 343 395 16,000 2,661 Climbing Denver Center
Wed 03:05:10 PM 39.7631 -105.3128 260° West 367 422 18,600 2,468 Climbing Denver Center
Wed 03:06:00 PM 39.6029 -105.4378 241° Southwest  Level FlightAware Approximate
Wed 03:06:12 PM 39.7342 -105.4544 255° West 385 443 21,100  Level Denver Center
Wed 03:07:13 PM 39.6864 -105.5806 244° Southwest 395 455 22,900 1,805 Climbing Denver Center
Wed 03:08:15 PM 39.6339 -105.7156 243° Southwest 421 484 24,800 1,597 Climbing Denver Center
Wed 03:09:17 PM 39.5853 -105.8450 244° Southwest 424 488 26,200 1,544 Climbing Denver Center
Wed 03:10:31 PM 39.5342 -105.9892 245° Southwest 436 502 28,300 1,941 Climbing Denver Center
Wed 03:11:33 PM 39.4672 -106.1967 247° West 445 512 30,600 2,032 Climbing Denver Center
Wed 03:12:35 PM 39.4200 -106.3447 248° West 444 511 32,500 1,756 Climbing Denver Center
Wed 03:13:36 PM 39.3731 -106.4828 246° West 441 507 34,200 1,511 Climbing Denver Center
Wed 03:14:50 PM 39.3211 -106.6433 247° West 434 499 35,900 794 Climbing Denver Center
Wed 03:15:52 PM 39.2686 -106.7994 247° West 425 489 36,000 44 Climbing Denver Center
Wed 03:17:06 PM 39.2094 -106.9797 247° West 425 489 36,000  Level Denver Center
Wed 03:18:08 PM 39.1558 -107.1408 247° West 435 501 36,000  Level Denver Center
Wed 03:19:10 PM 39.1097 -107.2756 246° West 432 497 36,000  Level Denver Center
Wed 03:20:12 PM 39.0636 -107.4117 246° West 432 497 36,000  Level Denver Center
Wed 03:21:13 PM 39.0106 -107.5686 247° West 428 493 36,000  Level Denver Center
Wed 03:22:15 PM 38.9644 -107.7031 246° West 428 493 36,000  Level Denver Center
Wed 03:23:17 PM 38.9117 -107.8583 246° West 425 489 36,000  Level Denver Center
Wed 03:24:19 PM 38.8653 -107.9936 246° West 429 494 36,000  Level Denver Center
Wed 03:25:32 PM 38.8114 -108.1497 246° West 427 491 36,000  Level Denver Center
Wed 03:26:35 PM 38.7569 -108.3053 246° West 428 493 36,000  Level Denver Center
Wed 03:27:36 PM 38.7028 -108.4617 246° West 428 493 36,000  Level Denver Center
Wed 03:28:38 PM 38.6550 -108.5950 245° Southwest 430 495 36,000  Level Denver Center
Wed 03:29:40 PM 38.6006 -108.7506 246° West 429 494 36,000  Level Denver Center
Wed 03:30:42 PM 38.5531 -108.8844 246° West 429 494 36,000  Level Denver Center
Wed 03:31:44 PM 38.5044 -109.0172 245° Southwest 430 495 36,000  Level Denver Center
Wed 03:32:45 PM 38.4483 -109.1753 246° West 434 499 36,000  Level Denver Center
Wed 03:33:47 PM 38.4003 -109.3075 245° Southwest 432 497 36,000  Level Denver Center
Wed 03:34:49 PM 38.3442 -109.4614 245° Southwest 428 493 36,000  Level Denver Center
Wed 03:35:51 PM 38.2967 -109.5925 245° Southwest 424 488 36,000  Level Denver Center
Wed 03:36:52 PM 38.2400 -109.7458 245° Southwest 426 490 36,000  Level Denver Center
Wed 03:37:54 PM 38.1922 -109.8747 245° Southwest 422 486 36,000  Level Denver Center
Wed 03:38:56 PM 38.1442 -110.0033 245° Southwest 421 484 36,000  Level Denver Center
Wed 03:39:58 PM 38.0900 -110.1531 245° Southwest 417 480 36,000  Level Denver Center
Wed 03:41:00 PM 38.0428 -110.2786 245° Southwest 413 475 36,000  Level Denver Center
Wed 03:42:01 PM 37.9942 -110.4097 245° Southwest 410 472 36,000  Level Denver Center
Wed 03:43:15 PM 37.9392 -110.5550 244° Southwest 410 472 36,000  Level Denver Center
Wed 03:44:17 PM 37.8814 -110.7047 244° Southwest 412 474 36,000  Level Denver Center
Wed 03:45:19 PM 37.8333 -110.8353 245° Southwest 411 473 36,000  Level Denver Center
Wed 03:46:21 PM 37.7731 -110.9922 244° Southwest 414 476 36,000 387 Level Denver Center
Wed 03:47:23 PM 37.7122 -111.1144 238° Southwest 412 474 36,800 832 Climbing Denver Center
Wed 03:48:02 PM 37.6750 -111.1900 238° Southwest 415 478 37,400 720 Climbing Salt Lake Center
Wed 03:49:03 PM 37.6167 -111.3178 240° Southwest 420 483 38,000 429 Climbing Salt Lake Center
Wed 03:49:26 PM 37.5919 -111.3686 238° Southwest 422 486 38,000  Level Denver Center
Wed 03:51:05 PM 37.5103 -111.5792 244° Southwest 419 482 38,000  Level Denver Center
Wed 03:52:07 PM 37.4586 -111.7128 244° Southwest 424 488 38,000  Level Denver Center
Wed 03:53:09 PM 37.4069 -111.8458 244° Southwest 424 488 38,000  Level Denver Center
Wed 03:53:55 PM 37.3644 -111.9533 244° Southwest 423 487 38,000  Level Los Angeles Center
Wed 03:54:57 PM 37.3125 -112.0858 244° Southwest 423 487 38,000  Level Los Angeles Center
Wed 03:55:59 PM 37.2378 -112.2347 238° Southwest 420 483 38,000  Level Los Angeles Center
Wed 03:57:01 PM 37.1717 -112.3547 235° Southwest 418 481 38,000  Level Los Angeles Center
Wed 03:58:03 PM 37.1064 -112.4756 236° Southwest 416 479 38,000  Level Los Angeles Center
Wed 03:59:05 PM 37.0408 -112.5939 235° Southwest 413 475 38,000  Level Los Angeles Center
Wed 04:00:07 PM 36.9767 -112.7111 236° Southwest 408 470 38,000  Level Los Angeles Center
Wed 04:01:09 PM 36.9128 -112.8275 236° Southwest 406 467 38,000  Level Los Angeles Center
Wed 04:02:11 PM 36.8469 -112.9444 235° Southwest 409 471 38,000  Level Los Angeles Center
Wed 04:03:13 PM 36.7681 -113.0856 235° Southwest 411 473 38,000  Level Los Angeles Center
Wed 04:04:15 PM 36.7036 -113.2033 236° Southwest 411 473 38,000  Level Los Angeles Center
Wed 04:05:17 PM 36.6378 -113.3194 235° Southwest 411 473 38,000  Level Los Angeles Center
Wed 04:06:19 PM 36.5728 -113.4367 235° Southwest 412 474 38,000  Level Los Angeles Center
Wed 04:07:22 PM 36.5069 -113.5525 235° Southwest 410 472 38,000  Level Los Angeles Center
Wed 04:09:26 PM 36.3669 -113.8017 235° Southwest 404 465 38,000  Level Los Angeles Center
Wed 04:10:28 PM 36.3033 -113.9150 235° Southwest 400 460 38,000  Level Los Angeles Center
Wed 04:11:30 PM 36.2383 -114.0278 234° Southwest 401 461 38,000  Level Los Angeles Center
Wed 04:12:32 PM 36.1744 -114.1408 235° Southwest 400 460 38,000  Level Los Angeles Center
Wed 04:13:34 PM 36.1092 -114.2536 234° Southwest 401 461 38,000  Level Los Angeles Center
Wed 04:14:36 PM 36.0319 -114.3881 235° Southwest 399 459 38,000  Level Los Angeles Center
Wed 04:15:38 PM 35.9664 -114.4997 234° Southwest 400 460 38,000  Level Los Angeles Center
Wed 04:16:41 PM 35.9008 -114.6125 234° Southwest 402 463 38,000  Level Los Angeles Center
Wed 04:18:45 PM 35.7700 -114.8381 234° Southwest 403 464 38,000  Level Los Angeles Center
Wed 04:19:47 PM 35.7056 -114.9497 235° Southwest 400 460 38,000  Level Los Angeles Center
Wed 04:20:49 PM 35.6403 -115.0603 234° Southwest 398 458 38,000  Level Los Angeles Center
Wed 04:21:51 PM 35.5603 -115.1936 234° Southwest 400 460 38,000  Level Los Angeles Center
Wed 04:22:53 PM 35.4761 -115.2869 222° Southwest 405 466 38,000  Level Los Angeles Center
Wed 04:23:55 PM 35.3928 -115.3825 223° Southwest 407 468 38,000  Level Los Angeles Center
Wed 04:24:58 PM 35.3103 -115.4769 223° Southwest 404 465 38,000  Level Los Angeles Center
Wed 04:26:00 PM 35.2247 -115.5794 224° Southwest 401 461 38,000  Level Los Angeles Center
Wed 04:27:02 PM 35.1797 -115.7019 246° West 401 461 38,000  Level Los Angeles Center
Wed 04:28:04 PM 35.1489 -115.8317 254° West 397 457 38,000  Level Los Angeles Center
Wed 04:29:06 PM 35.1178 -115.9611 254° West 399 459 38,000  Level Los Angeles Center
Wed 04:30:08 PM 35.0850 -116.0906 253° West 399 459 38,000  Level Los Angeles Center
Wed 04:31:10 PM 35.0467 -116.2453 253° West 398 458 38,000  Level Los Angeles Center
Wed 04:32:12 PM 35.0139 -116.3753 253° West 401 461 38,000  Level Los Angeles Center
Wed 04:33:14 PM 34.9811 -116.5047 253° West 400 460 38,000  Level Los Angeles Center
Wed 04:34:17 PM 34.9486 -116.6356 253° West 404 465 38,000  Level Los Angeles Center
Wed 04:35:18 PM 34.9214 -116.7403 252° West 403 464 38,000  Level Los Angeles Center
Wed 04:36:21 PM 34.8814 -116.8969 253° West 404 465 38,000  Level Los Angeles Center
Wed 04:37:23 PM 34.8414 -117.0539 253° West 405 466 38,000  Level Los Angeles Center
Wed 04:38:25 PM 34.8075 -117.1847 253° West 404 465 38,000  Level Los Angeles Center
Wed 04:39:27 PM 34.7731 -117.3164 252° West 407 468 38,000 -194 Level Los Angeles Center
Wed 04:40:29 PM 34.7392 -117.4486 253° West 407 468 37,600 -823 Descending Los Angeles Center
Wed 04:41:31 PM 34.7047 -117.5786 252° West 403 464 36,300 -774 Descending Los Angeles Center
Wed 04:42:33 PM 34.6708 -117.7089 252° West 403 464 36,000 -144 Descending Los Angeles Center
Wed 04:43:36 PM 34.6347 -117.8411 252° West 405 466 36,000 -242 Level Los Angeles Center
Wed 04:44:37 PM 34.6094 -117.9419 253° West 402 463 35,500 -1,548 Descending Los Angeles Center
Wed 04:45:40 PM 34.5633 -118.1222 253° West 397 457 32,800 -2,400 Descending Los Angeles Center
Wed 04:46:42 PM 34.5308 -118.2414 252° West 387 445 30,500 -2,226 Descending Los Angeles Center
Wed 04:47:44 PM 34.4969 -118.3647 252° West 387 445 28,200 -2,226 Descending Los Angeles Center
Wed 04:48:46 PM 34.4653 -118.4856 252° West 383 441 25,900 -1,806 Descending Los Angeles Center
Wed 04:50:00 PM 34.4128 -118.6362 256° West  Level FlightAware Approximate
Wed 04:50:50 PM 34.3933 -118.7456 256° West 373 429 22,600  Level Los Angeles Center
Wed 04:51:52 PM 34.3619 -118.8597 252° West 363 418 22,000 -823 Descending Los Angeles Center
Wed 04:52:54 PM 34.3492 -118.9778 263° West 359 413 20,900 -1,728 Descending Los Angeles Center
Wed 04:53:57 PM 34.3406 -119.0939 265° West 351 404 18,400 -2,880 Descending Los Angeles Center
Wed 04:54:59 PM 34.3300 -119.2353 265° West 355 409 14,900 -3,297 Descending Los Angeles Center
Wed 04:55:28 PM 34.3269 -119.2942 266° West 346 398 13,400 -2,710 Descending Los Angeles Center
Wed 04:56:01 PM 34.3225 -119.3436 264° West 329 379 12,100 -2,418 Descending Los Angeles Center
Wed 04:56:35 PM 34.3167 -119.4019 263° West 314 361 10,700 -2,226 Descending Los Angeles Center
Wed 04:57:03 PM 34.3075 -119.4433 255° West 306 352 9,800 -2,507 Descending Los Angeles Center
Wed 04:57:42 PM 34.2906 -119.5067 252° West 291 335 7,900 -2,516 Descending Los Angeles Center
Wed 04:58:05 PM 34.2850 -119.5317 255° West 286 329 7,200 -2,364 Descending Los Angeles Center
Wed 04:58:48 PM 34.2772 -119.6103 263° West 280 322 5,300 -2,226 Descending Los Angeles Center
Wed 04:59:07 PM 34.2822 -119.6222 297° West 282 325 4,900 -1,674 Descending Los Angeles Center
Wed 04:59:31 PM 34.3097 -119.6594 312° West 262 302 4,100 -1,048 Descending Los Angeles Center
Wed 05:00:10 PM 34.3375 -119.6944 314° West 253 291 3,800 -918 Descending Los Angeles Center
Wed 05:00:56 PM 34.3625 -119.7308 310° West 201 231 2,800 -1,355 Descending Los Angeles Center
Wed 05:01:12 PM 34.3742 -119.7411 324° Northwest 220 253 2,400 -1,200 Descending Los Angeles Center
Wed 05:01:56 PM 34.3967 -119.7772 307° West 173 199 1,600 -1,161 Descending Los Angeles Center
Wed 05:02:14 PM 34.4044 -119.7861 317° Northwest 193 222 1,200 -977 Descending Los Angeles Center
Wed 05:02:39 PM 34.4192 -119.8011 320° Northwest 151 174 900 -387 Descending Los Angeles Center
Wed 05:03:16 PM 34.4358 -119.8167 322° Northwest 169 194 800 -162 Descending Los Angeles Center
Wed 05:05:00 PM 34.4167 -119.8333 292° West  Level FlightAware Approximate

Login

Don't have an account? Register now (free) for customized features, flight alerts, and more!